createdAt,value
2023-04-15T00:02:32.187Z,2.77
2023-04-15T00:05:19.858Z,2.33
2023-04-15T00:08:07.652Z,2.57
2023-04-15T00:10:55.723Z,2.10
2023-04-15T00:13:44.837Z,2.43
2023-04-15T00:16:32.127Z,2.53
2023-04-15T00:19:21.240Z,2.00
2023-04-15T00:22:09.203Z,2.50
2023-04-15T00:24:57.085Z,2.63
2023-04-15T00:27:44.310Z,2.73
2023-04-15T00:30:33.190Z,2.80
2023-04-15T00:33:20.426Z,2.80
2023-04-15T00:36:09.187Z,2.17
2023-04-15T00:38:58.267Z,2.57
2023-04-15T00:41:46.137Z,2.63
2023-04-15T00:44:35.182Z,2.57
2023-04-15T00:47:25.468Z,2.73
2023-04-15T00:50:13.482Z,3.03
2023-04-15T00:53:01.629Z,2.63
2023-04-15T00:55:49.876Z,2.93
2023-04-15T00:58:37.339Z,2.93
2023-04-15T01:01:26.835Z,2.30
2023-04-15T01:04:16.446Z,3.03
2023-04-15T01:07:04.739Z,2.17
2023-04-15T01:09:53.323Z,2.80
2023-04-15T01:12:40.796Z,2.70
2023-04-15T01:15:29.963Z,2.77
2023-04-15T01:18:19.185Z,2.80
2023-04-15T01:21:07.953Z,2.20
2023-04-15T01:23:57.357Z,2.70
2023-04-15T01:26:46.644Z,2.37
2023-04-15T01:29:38.866Z,2.30
2023-04-15T01:32:26.038Z,2.37
2023-04-15T01:35:14.235Z,2.20
2023-04-15T01:38:06.330Z,2.60
2023-04-15T01:40:54.437Z,3.10
2023-04-15T01:43:43.020Z,3.17
2023-04-15T01:46:31.294Z,3.17
2023-04-15T01:49:18.952Z,2.77
2023-04-15T01:52:07.389Z,2.80
2023-04-15T01:54:55.051Z,2.87
2023-04-15T01:57:42.801Z,2.97
2023-04-15T02:00:32.597Z,3.00
2023-04-15T02:03:20.844Z,2.90
2023-04-15T02:06:08.545Z,2.30
2023-04-15T02:08:55.838Z,2.57
2023-04-15T02:11:44.219Z,2.30
2023-04-15T02:14:31.658Z,3.10
2023-04-15T02:17:20.878Z,2.33
2023-04-15T02:20:10.547Z,3.20
2023-04-15T02:22:58.609Z,2.67
2023-04-15T02:25:53.494Z,2.60
2023-04-15T02:28:42.464Z,2.63
2023-04-15T02:31:29.870Z,2.53
2023-04-15T02:34:20.903Z,2.83
2023-04-15T02:37:09.239Z,2.57
2023-04-15T02:39:56.704Z,2.50
2023-04-15T02:42:45.037Z,2.40
2023-04-15T02:45:36.172Z,2.33
2023-04-15T02:48:25.890Z,2.40
2023-04-15T02:51:16.642Z,2.70
2023-04-15T02:54:04.879Z,2.77
2023-04-15T02:56:56.213Z,2.63
2023-04-15T02:59:43.903Z,2.80
2023-04-15T03:02:34.575Z,2.60
2023-04-15T03:05:26.221Z,2.53
2023-04-15T03:08:15.493Z,2.77
2023-04-15T03:11:03.373Z,2.70
2023-04-15T03:13:50.613Z,2.67
2023-04-15T03:16:52.010Z,2.60
2023-04-15T03:19:40.503Z,2.30
2023-04-15T03:22:28.891Z,2.40
2023-04-15T03:25:18.646Z,2.13
2023-04-15T03:28:06.265Z,2.50
2023-04-15T03:30:54.547Z,2.47
2023-04-15T03:33:42.046Z,2.73
2023-04-15T03:36:32.589Z,2.37
2023-04-15T03:39:19.776Z,2.93
2023-04-15T03:42:09.341Z,2.83
2023-04-15T03:44:56.716Z,2.27
2023-04-15T03:47:44.950Z,2.60
2023-04-15T03:50:32.150Z,2.40
2023-04-15T03:53:21.848Z,1.87
2023-04-15T03:56:09.628Z,2.70
2023-04-15T03:58:59.005Z,2.23
2023-04-15T04:01:47.298Z,2.63
2023-04-15T04:04:35.180Z,2.20
2023-04-15T04:07:24.534Z,2.00
2023-04-15T04:10:12.607Z,1.80
2023-04-15T04:12:59.834Z,2.10
2023-04-15T04:15:49.340Z,2.23
2023-04-15T04:18:36.470Z,2.43
2023-04-15T04:21:24.595Z,2.30
2023-04-15T04:24:12.258Z,2.50
2023-04-15T04:27:00.352Z,2.03
2023-04-15T04:29:47.956Z,1.97
2023-04-15T04:32:37.536Z,2.60
2023-04-15T04:35:24.649Z,2.23
2023-04-15T04:38:12.710Z,2.30
2023-04-15T04:41:00.006Z,2.03
2023-04-15T04:43:47.664Z,1.77
2023-04-15T04:46:34.709Z,2.20
2023-04-15T04:49:24.032Z,1.60
2023-04-15T04:52:11.590Z,2.40
2023-04-15T04:54:59.648Z,2.27
2023-04-15T04:57:47.331Z,2.00
2023-04-15T05:00:35.221Z,1.83
2023-04-15T05:03:22.729Z,1.80
2023-04-15T05:06:12.217Z,2.27
2023-04-15T05:08:59.776Z,2.10
2023-04-15T05:11:47.005Z,2.47
2023-04-15T05:14:34.834Z,1.90
2023-04-15T05:17:22.523Z,2.00
2023-04-15T05:20:10.497Z,1.60
2023-04-15T05:22:59.835Z,1.67
2023-04-15T05:25:47.531Z,1.73
2023-04-15T05:28:34.920Z,2.00
2023-04-15T05:31:23.125Z,1.50
2023-04-15T05:34:11.766Z,1.70
2023-04-15T05:36:59.368Z,1.40
2023-04-15T05:39:48.347Z,1.87
2023-04-15T05:42:36.884Z,1.80
2023-04-15T05:45:23.882Z,1.50
2023-04-15T05:48:12.456Z,2.40
2023-04-15T05:50:59.721Z,1.90
2023-04-15T05:53:47.894Z,1.70
2023-04-15T05:56:36.963Z,1.60
2023-04-15T05:59:24.276Z,1.73
2023-04-15T06:02:12.539Z,1.57
2023-04-15T06:05:01.478Z,1.50
2023-04-15T06:07:50.144Z,1.40
2023-04-15T06:10:37.520Z,1.90
2023-04-15T06:13:27.604Z,2.30
2023-04-15T06:16:14.905Z,1.30
2023-04-15T06:19:03.415Z,1.60
2023-04-15T06:21:51.329Z,1.80
2023-04-15T06:24:39.126Z,2.20
2023-04-15T06:27:26.906Z,1.70
2023-04-15T06:30:15.566Z,1.50
2023-04-15T06:33:06.042Z,1.87
2023-04-15T06:35:53.253Z,1.80
2023-04-15T06:38:41.332Z,1.47
2023-04-15T06:41:30.599Z,1.50
2023-04-15T06:44:19.085Z,1.60
2023-04-15T06:47:09.013Z,1.90
2023-04-15T06:49:57.093Z,1.40
2023-04-15T06:52:44.881Z,1.60
2023-04-15T06:55:32.825Z,1.33
2023-04-15T06:58:20.573Z,2.20
2023-04-15T07:01:08.374Z,1.60
2023-04-15T07:03:57.189Z,1.23
2023-04-15T07:06:44.658Z,1.40
2023-04-15T07:09:32.936Z,1.10
2023-04-15T07:12:20.822Z,1.20
2023-04-15T07:15:09.017Z,1.40
2023-04-15T07:17:56.319Z,1.30
2023-04-15T07:20:45.530Z,1.50
2023-04-15T07:23:32.905Z,1.50
2023-04-15T07:26:20.209Z,1.43
2023-04-15T07:29:07.987Z,1.27
2023-04-15T07:31:57.185Z,1.57
2023-04-15T07:34:44.860Z,1.70
2023-04-15T07:37:34.319Z,1.53
2023-04-15T07:40:28.969Z,1.70
2023-04-15T07:43:19.021Z,1.40
2023-04-15T07:46:06.901Z,1.30
2023-04-15T07:48:54.649Z,1.70
2023-04-15T07:51:41.858Z,1.40
2023-04-15T07:54:30.743Z,1.50
2023-04-15T07:57:18.388Z,2.00
2023-04-15T08:00:08.079Z,1.33
2023-04-15T08:03:01.414Z,1.30
2023-04-15T08:05:49.690Z,1.83
2023-04-15T08:08:37.982Z,1.10
2023-04-15T08:11:28.226Z,1.30
2023-04-15T08:14:15.526Z,1.67
2023-04-15T08:17:03.748Z,1.50
2023-04-15T08:19:51.416Z,1.87
2023-04-15T08:22:39.190Z,1.80
2023-04-15T08:25:27.214Z,1.50
2023-04-15T08:28:17.852Z,1.57
2023-04-15T08:31:05.265Z,1.73
2023-04-15T08:33:53.498Z,1.30
2023-04-15T08:36:41.064Z,1.50
2023-04-15T08:39:28.957Z,1.60
2023-04-15T08:42:18.354Z,1.87
2023-04-15T08:45:11.046Z,2.07
2023-04-15T08:47:59.105Z,1.50
2023-04-15T08:50:47.631Z,1.73
2023-04-15T08:53:36.046Z,1.40
2023-04-15T08:56:26.332Z,1.77
2023-04-15T08:59:14.351Z,1.80
2023-04-15T09:02:04.196Z,1.70
2023-04-15T09:04:51.495Z,1.90
2023-04-15T09:07:38.776Z,1.60
2023-04-15T09:10:27.001Z,1.93
2023-04-15T09:13:14.917Z,1.73
2023-04-15T09:16:04.136Z,1.73
2023-04-15T09:18:53.110Z,1.57
2023-04-15T09:21:40.317Z,1.93
2023-04-15T09:24:37.394Z,1.80
2023-04-15T09:27:24.543Z,2.23
2023-04-15T09:30:12.264Z,1.80
2023-04-15T09:33:02.721Z,2.20
2023-04-15T09:36:03.655Z,2.10
2023-04-15T09:38:56.242Z,2.20
2023-04-15T09:41:44.628Z,2.03
2023-04-15T09:44:31.719Z,2.40
2023-04-15T09:47:28.254Z,2.27
2023-04-15T09:50:15.563Z,2.03
2023-04-15T09:53:05.390Z,2.00
2023-04-15T09:55:55.130Z,2.30
2023-04-15T09:58:43.180Z,2.90
2023-04-15T10:01:31.464Z,2.40
2023-04-15T10:04:19.197Z,2.43
2023-04-15T10:07:08.713Z,2.73
2023-04-15T10:10:00.519Z,2.43
2023-04-15T10:12:48.811Z,2.30
2023-04-15T10:15:37.605Z,2.30
2023-04-15T10:18:27.079Z,2.43
2023-04-15T10:21:18.399Z,2.37
2023-04-15T10:24:07.544Z,2.80
2023-04-15T10:27:07.742Z,2.27
2023-04-15T10:30:00.792Z,1.93
2023-04-15T10:32:48.773Z,2.23
2023-04-15T10:35:37.336Z,2.70
2023-04-15T10:38:35.998Z,2.50
2023-04-15T10:41:24.270Z,3.03
2023-04-15T10:44:13.244Z,2.93
2023-04-15T10:47:00.700Z,3.07
2023-04-15T10:49:50.342Z,2.97
2023-04-15T10:52:41.440Z,3.10
2023-04-15T10:55:33.409Z,3.63
2023-04-15T10:58:24.634Z,2.87
2023-04-15T11:01:13.942Z,3.50
2023-04-15T11:04:02.063Z,3.00
2023-04-15T11:07:06.228Z,3.37
2023-04-15T11:09:53.325Z,3.85
2023-04-15T11:12:41.291Z,3.05
2023-04-15T11:15:30.969Z,3.17
2023-04-15T11:18:21.399Z,3.20
2023-04-15T11:21:09.568Z,3.60
2023-04-15T11:23:57.740Z,3.00
2023-04-15T11:26:44.825Z,2.60
2023-04-15T11:29:32.807Z,3.30
2023-04-15T11:32:21.890Z,2.97
2023-04-15T11:35:10.788Z,2.77
2023-04-15T11:37:58.574Z,2.90
2023-04-15T11:40:47.313Z,3.13
2023-04-15T11:43:35.615Z,2.70
2023-04-15T11:46:31.304Z,3.03
2023-04-15T11:49:28.415Z,2.83
2023-04-15T11:52:17.087Z,2.87
2023-04-15T11:55:04.717Z,2.77
2023-04-15T11:58:06.614Z,2.90
2023-04-15T12:00:55.661Z,3.57
2023-04-15T12:03:44.991Z,3.00
2023-04-15T12:06:35.408Z,3.13
2023-04-15T12:09:25.163Z,3.13
2023-04-15T12:12:13.197Z,3.10
2023-04-15T12:15:00.429Z,3.83
2023-04-15T12:17:51.827Z,4.00
2023-04-15T12:20:44.310Z,3.80
2023-04-15T12:23:31.967Z,3.90
2023-04-15T12:26:27.432Z,3.83
2023-04-15T12:29:17.829Z,4.30
2023-04-15T12:32:07.228Z,3.13
2023-04-15T12:34:55.395Z,3.50
2023-04-15T12:37:43.042Z,3.10
2023-04-15T12:40:30.802Z,3.00
2023-04-15T12:43:19.294Z,2.67
2023-04-15T12:46:08.865Z,3.07
2023-04-15T12:48:56.990Z,2.60
2023-04-15T12:51:45.188Z,3.07
2023-04-15T12:54:33.124Z,2.60
2023-04-15T12:57:21.152Z,2.83
2023-04-15T13:00:11.344Z,2.60
2023-04-15T13:02:58.563Z,2.80
2023-04-15T13:05:46.300Z,2.43
2023-04-15T13:08:33.630Z,2.27
2023-04-15T13:11:21.582Z,1.90
2023-04-15T13:14:11.375Z,2.07
2023-04-15T13:16:59.853Z,2.40
2023-04-15T13:19:47.267Z,2.37
2023-04-15T13:22:34.426Z,1.97
2023-04-15T13:25:22.642Z,1.93
2023-04-15T13:28:11.747Z,2.67
2023-04-15T13:31:00.762Z,2.23
2023-04-15T13:33:49.277Z,2.57
2023-04-15T13:36:37.359Z,2.33
2023-04-15T13:39:25.048Z,2.40
2023-04-15T13:42:12.264Z,2.70
2023-04-15T13:45:00.435Z,5.23
2023-04-15T13:47:47.686Z,2.97
2023-04-15T13:50:36.639Z,3.17
2023-04-15T13:53:28.227Z,2.67
2023-04-15T13:56:26.599Z,3.10
2023-04-15T13:59:14.779Z,2.57
2023-04-15T14:02:02.216Z,2.80
2023-04-15T14:04:49.688Z,2.73
2023-04-15T14:07:38.310Z,2.60
2023-04-15T14:10:25.602Z,2.80
2023-04-15T14:13:12.733Z,2.70
2023-04-15T14:16:00.049Z,2.67
2023-04-15T14:18:47.255Z,2.87
2023-04-15T14:21:34.673Z,2.23
2023-04-15T14:24:23.322Z,2.53
2023-04-15T14:27:12.512Z,2.40
2023-04-15T14:29:59.985Z,2.80
2023-04-15T14:32:47.637Z,2.50
2023-04-15T14:35:34.786Z,2.20
2023-04-15T14:38:23.110Z,2.37
2023-04-15T14:41:12.197Z,2.10
2023-04-15T14:43:59.750Z,2.60
2023-04-15T14:46:46.964Z,3.00
2023-04-15T14:49:34.314Z,3.13
2023-04-15T14:52:21.986Z,3.47
2023-04-15T14:55:10.565Z,3.80
2023-04-15T14:57:59.201Z,2.30
2023-04-15T15:00:46.465Z,2.80
2023-04-15T15:03:35.563Z,2.60
2023-04-15T15:06:22.997Z,2.20
2023-04-15T15:09:10.912Z,2.70
2023-04-15T15:11:58.266Z,3.43
2023-04-15T15:14:48.332Z,3.00
2023-04-15T15:17:35.789Z,2.90
2023-04-15T15:20:24.162Z,2.37
2023-04-15T15:23:11.393Z,2.50
2023-04-15T15:25:59.626Z,3.00
2023-04-15T15:28:47.348Z,3.00
2023-04-15T15:31:36.245Z,3.27
2023-04-15T15:34:24.271Z,3.20
2023-04-15T15:37:12.007Z,3.20
2023-04-15T15:39:59.779Z,3.10
2023-04-15T15:42:49.834Z,3.40
2023-04-15T15:45:37.513Z,3.47
2023-04-15T15:48:26.578Z,3.63
2023-04-15T15:51:13.808Z,3.53
2023-04-15T15:54:01.174Z,4.10
2023-04-15T15:56:48.590Z,3.63
2023-04-15T15:59:35.777Z,3.47
2023-04-15T16:02:40.097Z,3.40
2023-04-15T16:05:32.271Z,3.77
2023-04-15T16:08:20.593Z,3.73
2023-04-15T16:11:07.810Z,3.13
2023-04-15T16:13:55.654Z,3.33
2023-04-15T16:16:42.951Z,2.93
2023-04-15T16:19:30.724Z,3.10
2023-04-15T16:22:19.288Z,3.23
2023-04-15T16:25:07.317Z,3.40
2023-04-15T16:28:03.549Z,2.97
2023-04-15T16:30:57.139Z,2.93
2023-04-15T16:33:45.260Z,2.67
2023-04-15T16:36:34.223Z,2.40
2023-04-15T16:39:24.418Z,2.70
2023-04-15T16:42:11.650Z,2.80
2023-04-15T16:45:00.013Z,2.90
2023-04-15T16:47:47.694Z,2.83
2023-04-15T16:50:36.498Z,2.80
2023-04-15T16:53:24.323Z,2.40
2023-04-15T16:56:12.765Z,2.70
2023-04-15T16:59:01.256Z,3.17
2023-04-15T17:01:49.155Z,2.83
2023-04-15T17:04:37.056Z,3.33
2023-04-15T17:07:24.317Z,3.50
2023-04-15T17:10:14.286Z,2.87
2023-04-15T17:13:03.277Z,3.03
2023-04-15T17:15:51.090Z,2.87
2023-04-15T17:18:39.134Z,3.10
2023-04-15T17:21:27.868Z,2.93
2023-04-15T17:24:15.073Z,2.90
2023-04-15T17:27:03.873Z,3.53
2023-04-15T17:29:53.026Z,3.00
2023-04-15T17:32:40.390Z,2.80
2023-04-15T17:35:28.662Z,3.10
2023-04-15T17:38:16.702Z,3.60
2023-04-15T17:41:04.805Z,3.27
2023-04-15T17:43:52.488Z,3.47
2023-04-15T17:46:41.017Z,2.90
2023-04-15T17:49:28.920Z,3.73
2023-04-15T17:52:16.813Z,3.03
2023-04-15T17:55:04.976Z,3.23
2023-04-15T17:57:52.162Z,3.23
2023-04-15T18:00:40.170Z,3.43
2023-04-15T18:03:28.757Z,3.07
2023-04-15T18:06:17.397Z,3.70
2023-04-15T18:09:05.437Z,3.97
2023-04-15T18:11:52.990Z,3.33
2023-04-15T18:14:40.195Z,3.10
2023-04-15T18:17:28.320Z,4.57
2023-04-15T18:20:16.999Z,3.80
2023-04-15T18:23:05.036Z,4.13
2023-04-15T18:25:52.227Z,4.53
2023-04-15T18:28:40.283Z,4.00
2023-04-15T18:31:27.542Z,4.03
2023-04-15T18:34:15.732Z,4.13
2023-04-15T18:37:05.305Z,4.93
2023-04-15T18:39:54.559Z,4.17
2023-04-15T18:42:41.840Z,4.17
2023-04-15T18:45:30.605Z,3.93
2023-04-15T18:48:17.814Z,4.23
2023-04-15T18:51:05.911Z,3.50
2023-04-15T18:53:54.386Z,4.03
2023-04-15T18:56:42.724Z,3.90
2023-04-15T18:59:30.928Z,4.03
2023-04-15T19:02:18.968Z,4.17
2023-04-15T19:05:06.859Z,4.87
2023-04-15T19:07:54.542Z,4.50
2023-04-15T19:10:43.139Z,4.67
2023-04-15T19:13:30.918Z,4.40
2023-04-15T19:16:18.074Z,5.03
2023-04-15T19:19:06.698Z,4.13
2023-04-15T19:21:54.275Z,4.20
2023-04-15T19:24:42.461Z,4.30
2023-04-15T19:27:31.010Z,4.20
2023-04-15T19:30:19.177Z,4.17
2023-04-15T19:33:06.556Z,3.67
2023-04-15T19:35:54.581Z,3.67
2023-04-15T19:38:41.773Z,3.63
2023-04-15T19:41:29.932Z,3.97
2023-04-15T19:44:18.709Z,3.67
2023-04-15T19:47:06.291Z,3.43
2023-04-15T19:49:53.548Z,3.87
2023-04-15T19:52:41.791Z,3.37
2023-04-15T19:55:29.032Z,3.37
2023-04-15T19:58:17.154Z,3.77
2023-04-15T20:01:05.745Z,3.53
2023-04-15T20:03:54.528Z,3.33
2023-04-15T20:06:41.981Z,4.33
2023-04-15T20:09:29.637Z,4.03
2023-04-15T20:12:51.590Z,4.20
2023-04-15T20:15:24.850Z,4.00
2023-04-15T20:18:13.975Z,3.37
2023-04-15T20:21:01.541Z,4.00
2023-04-15T20:23:49.626Z,3.57
2023-04-15T20:26:36.872Z,3.37
2023-04-15T20:29:24.810Z,2.63
2023-04-15T20:32:12.349Z,3.20
2023-04-15T20:35:01.679Z,2.90
2023-04-15T20:37:49.329Z,2.33
2023-04-15T20:40:37.878Z,3.00
2023-04-15T20:43:26.121Z,2.50
2023-04-15T20:46:21.152Z,3.00
2023-04-15T20:49:08.771Z,3.07
2023-04-15T20:51:58.116Z,2.70
2023-04-15T20:54:46.782Z,3.10
2023-04-15T20:57:34.849Z,2.90
2023-04-15T21:00:22.155Z,2.67
2023-04-15T21:03:09.899Z,2.70
2023-04-15T21:05:57.215Z,2.47
2023-04-15T21:08:46.299Z,3.17
2023-04-15T21:11:53.208Z,2.87
2023-04-15T21:14:41.525Z,2.97
2023-04-15T21:17:29.202Z,2.90
2023-04-15T21:20:16.578Z,2.87
2023-04-15T21:23:04.120Z,2.87
2023-04-15T21:25:52.834Z,3.17
2023-04-15T21:28:39.948Z,3.23
2023-04-15T21:31:27.153Z,2.93
2023-04-15T21:34:14.806Z,3.13
2023-04-15T21:37:02.224Z,3.07
2023-04-15T21:39:49.839Z,3.17
2023-04-15T21:42:38.443Z,3.10
2023-04-15T21:45:26.273Z,2.90
2023-04-15T21:48:13.740Z,2.67
2023-04-15T21:51:02.145Z,3.30
2023-04-15T21:53:49.382Z,3.13
2023-04-15T21:56:38.299Z,3.10
2023-04-15T21:59:27.123Z,2.87
2023-04-15T22:02:15.260Z,3.30
2023-04-15T22:05:02.526Z,3.00
2023-04-15T22:07:50.597Z,2.87
2023-04-15T22:10:39.386Z,3.03
2023-04-15T22:13:26.980Z,2.93
2023-04-15T22:16:15.630Z,2.53
2023-04-15T22:19:03.318Z,2.90
2023-04-15T22:21:51.652Z,2.60
2023-04-15T22:24:41.053Z,2.43
2023-04-15T22:27:28.348Z,1.93
2023-04-15T22:30:15.692Z,2.07
2023-04-15T22:33:05.071Z,1.73
2023-04-15T22:35:53.197Z,1.43
2023-04-15T22:38:40.520Z,1.70
2023-04-15T22:41:28.212Z,1.30
2023-04-15T22:44:15.870Z,1.63
2023-04-15T22:47:03.564Z,1.90
2023-04-15T22:49:52.048Z,1.73
2023-04-15T22:52:40.185Z,1.90
2023-04-15T22:55:27.785Z,2.37
2023-04-15T22:58:16.699Z,2.90
2023-04-15T23:01:04.552Z,3.07
2023-04-15T23:03:56.265Z,2.90
2023-04-15T23:06:49.015Z,2.80
2023-04-15T23:09:36.281Z,2.80
2023-04-15T23:12:24.392Z,3.27
2023-04-15T23:15:12.496Z,2.43
2023-04-15T23:18:00.474Z,2.03
2023-04-15T23:20:48.703Z,2.20
2023-04-15T23:23:37.328Z,2.30
2023-04-15T23:26:25.134Z,2.73
2023-04-15T23:29:12.950Z,2.40
2023-04-15T23:32:01.099Z,2.40
2023-04-15T23:34:48.483Z,2.40
2023-04-15T23:37:36.642Z,2.70
2023-04-15T23:40:25.410Z,2.83
2023-04-15T23:43:14.386Z,2.30
2023-04-15T23:46:01.840Z,2.80
2023-04-15T23:48:50.195Z,3.27
2023-04-15T23:51:37.903Z,3.23
2023-04-15T23:54:25.694Z,3.27
2023-04-15T23:57:14.184Z,3.53
